sensor_id;sensor_type;location;lat;lon;timestamp;P1;durP1;ratioP1;P2;durP2;ratioP2
32639;SDS011;19049;52.524;11.468;2023-08-31T00:02:10;1.90;;;1.70;;
32639;SDS011;19049;52.524;11.468;2023-08-31T00:04:36;2.17;;;1.60;;
32639;SDS011;19049;52.524;11.468;2023-08-31T00:07:02;1.93;;;1.73;;
32639;SDS011;19049;52.524;11.468;2023-08-31T00:09:28;2.00;;;1.77;;
32639;SDS011;19049;52.524;11.468;2023-08-31T00:11:56;2.47;;;2.27;;
32639;SDS011;19049;52.524;11.468;2023-08-31T00:14:23;2.80;;;2.50;;
32639;SDS011;19049;52.524;11.468;2023-08-31T00:16:49;2.50;;;2.30;;
32639;SDS011;19049;52.524;11.468;2023-08-31T00:19:15;3.33;;;2.50;;
32639;SDS011;19049;52.524;11.468;2023-08-31T00:21:41;3.93;;;2.73;;
32639;SDS011;19049;52.524;11.468;2023-08-31T00:24:07;2.60;;;2.10;;
32639;SDS011;19049;52.524;11.468;2023-08-31T00:26:35;2.57;;;2.03;;
32639;SDS011;19049;52.524;11.468;2023-08-31T00:29:05;2.60;;;2.03;;
32639;SDS011;19049;52.524;11.468;2023-08-31T00:31:36;2.30;;;2.10;;
32639;SDS011;19049;52.524;11.468;2023-08-31T00:34:02;3.70;;;3.00;;
32639;SDS011;19049;52.524;11.468;2023-08-31T00:36:32;2.53;;;2.33;;
32639;SDS011;19049;52.524;11.468;2023-08-31T00:38:58;2.70;;;2.50;;
32639;SDS011;19049;52.524;11.468;2023-08-31T00:41:31;3.03;;;2.73;;
32639;SDS011;19049;52.524;11.468;2023-08-31T00:43:57;3.57;;;2.70;;
32639;SDS011;19049;52.524;11.468;2023-08-31T00:46:23;2.93;;;2.60;;
32639;SDS011;19049;52.524;11.468;2023-08-31T00:48:49;3.40;;;3.10;;
32639;SDS011;19049;52.524;11.468;2023-08-31T00:51:15;4.33;;;2.80;;
32639;SDS011;19049;52.524;11.468;2023-08-31T00:53:42;3.00;;;2.70;;
32639;SDS011;19049;52.524;11.468;2023-08-31T00:56:08;3.90;;;3.33;;
32639;SDS011;19049;52.524;11.468;2023-08-31T00:58:33;4.63;;;3.30;;
32639;SDS011;19049;52.524;11.468;2023-08-31T01:06:24;4.33;;;3.50;;
32639;SDS011;19049;52.524;11.468;2023-08-31T01:09:06;4.87;;;3.50;;
32639;SDS011;19049;52.524;11.468;2023-08-31T01:11:45;4.77;;;3.50;;
32639;SDS011;19049;52.524;11.468;2023-08-31T01:14:23;4.20;;;3.80;;
32639;SDS011;19049;52.524;11.468;2023-08-31T01:16:56;3.87;;;3.47;;
32639;SDS011;19049;52.524;11.468;2023-08-31T01:19:31;2.97;;;2.73;;
32639;SDS011;19049;52.524;11.468;2023-08-31T01:23:00;3.40;;;3.10;;
32639;SDS011;19049;52.524;11.468;2023-08-31T01:25:10;3.53;;;2.90;;
32639;SDS011;19049;52.524;11.468;2023-08-31T01:27:37;3.93;;;3.43;;
32639;SDS011;19049;52.524;11.468;2023-08-31T01:30:04;3.73;;;3.33;;
32639;SDS011;19049;52.524;11.468;2023-08-31T01:32:33;5.13;;;3.37;;
32639;SDS011;19049;52.524;11.468;2023-08-31T01:34:59;4.80;;;3.50;;
32639;SDS011;19049;52.524;11.468;2023-08-31T01:40:10;4.67;;;3.83;;
32639;SDS011;19049;52.524;11.468;2023-08-31T01:42:42;4.67;;;3.73;;
32639;SDS011;19049;52.524;11.468;2023-08-31T01:45:10;4.03;;;3.50;;
32639;SDS011;19049;52.524;11.468;2023-08-31T01:47:38;4.00;;;3.60;;
32639;SDS011;19049;52.524;11.468;2023-08-31T01:50:04;4.57;;;4.17;;
32639;SDS011;19049;52.524;11.468;2023-08-31T01:52:30;5.93;;;3.80;;
32639;SDS011;19049;52.524;11.468;2023-08-31T01:54:56;4.57;;;4.07;;
32639;SDS011;19049;52.524;11.468;2023-08-31T01:57:22;4.60;;;3.80;;
32639;SDS011;19049;52.524;11.468;2023-08-31T01:59:47;4.80;;;3.97;;
32639;SDS011;19049;52.524;11.468;2023-08-31T02:02:13;5.10;;;4.50;;
32639;SDS011;19049;52.524;11.468;2023-08-31T02:04:39;4.87;;;4.00;;
32639;SDS011;19049;52.524;11.468;2023-08-31T02:07:05;4.17;;;3.67;;
32639;SDS011;19049;52.524;11.468;2023-08-31T02:09:31;4.80;;;4.30;;
32639;SDS011;19049;52.524;11.468;2023-08-31T02:11:56;4.90;;;4.40;;
32639;SDS011;19049;52.524;11.468;2023-08-31T02:14:22;4.73;;;4.23;;
32639;SDS011;19049;52.524;11.468;2023-08-31T02:16:48;4.83;;;4.20;;
32639;SDS011;19049;52.524;11.468;2023-08-31T02:19:14;5.37;;;4.63;;
32639;SDS011;19049;52.524;11.468;2023-08-31T02:21:39;7.20;;;5.67;;
32639;SDS011;19049;52.524;11.468;2023-08-31T02:24:05;5.03;;;4.53;;
32639;SDS011;19049;52.524;11.468;2023-08-31T02:26:31;4.73;;;4.20;;
32639;SDS011;19049;52.524;11.468;2023-08-31T02:28:57;6.57;;;5.30;;
32639;SDS011;19049;52.524;11.468;2023-08-31T02:31:23;8.73;;;5.67;;
32639;SDS011;19049;52.524;11.468;2023-08-31T02:33:49;5.83;;;5.10;;
32639;SDS011;19049;52.524;11.468;2023-08-31T02:36:15;6.43;;;5.50;;
32639;SDS011;19049;52.524;11.468;2023-08-31T02:38:41;7.93;;;6.03;;
32639;SDS011;19049;52.524;11.468;2023-08-31T02:41:06;6.37;;;5.77;;
32639;SDS011;19049;52.524;11.468;2023-08-31T02:43:32;7.50;;;6.10;;
32639;SDS011;19049;52.524;11.468;2023-08-31T02:46:01;8.13;;;5.53;;
32639;SDS011;19049;52.524;11.468;2023-08-31T02:48:27;7.67;;;5.57;;
32639;SDS011;19049;52.524;11.468;2023-08-31T02:50:54;7.63;;;6.17;;
32639;SDS011;19049;52.524;11.468;2023-08-31T02:53:26;6.53;;;5.40;;
32639;SDS011;19049;52.524;11.468;2023-08-31T02:55:52;6.60;;;5.90;;
32639;SDS011;19049;52.524;11.468;2023-08-31T02:58:18;6.63;;;5.60;;
32639;SDS011;19049;52.524;11.468;2023-08-31T03:00:44;6.53;;;5.10;;
32639;SDS011;19049;52.524;11.468;2023-08-31T03:03:13;5.73;;;5.13;;
32639;SDS011;19049;52.524;11.468;2023-08-31T03:05:42;5.60;;;5.03;;
32639;SDS011;19049;52.524;11.468;2023-08-31T03:08:08;5.83;;;5.23;;
32639;SDS011;19049;52.524;11.468;2023-08-31T03:10:33;9.67;;;5.80;;
32639;SDS011;19049;52.524;11.468;2023-08-31T03:12:59;6.80;;;5.43;;
32639;SDS011;19049;52.524;11.468;2023-08-31T03:15:24;5.67;;;4.83;;
32639;SDS011;19049;52.524;11.468;2023-08-31T03:17:50;6.03;;;5.30;;
32639;SDS011;19049;52.524;11.468;2023-08-31T03:20:16;6.17;;;5.13;;
32639;SDS011;19049;52.524;11.468;2023-08-31T03:22:42;5.70;;;4.80;;
32639;SDS011;19049;52.524;11.468;2023-08-31T03:25:07;6.90;;;5.13;;
32639;SDS011;19049;52.524;11.468;2023-08-31T03:27:34;5.63;;;5.13;;
32639;SDS011;19049;52.524;11.468;2023-08-31T03:30:00;6.60;;;5.40;;
32639;SDS011;19049;52.524;11.468;2023-08-31T03:32:28;7.43;;;5.37;;
32639;SDS011;19049;52.524;11.468;2023-08-31T03:34:53;6.87;;;5.33;;
32639;SDS011;19049;52.524;11.468;2023-08-31T03:37:19;8.37;;;5.97;;
32639;SDS011;19049;52.524;11.468;2023-08-31T03:39:47;7.27;;;5.80;;
32639;SDS011;19049;52.524;11.468;2023-08-31T03:42:13;6.83;;;5.23;;
32639;SDS011;19049;52.524;11.468;2023-08-31T03:44:39;6.83;;;5.70;;
32639;SDS011;19049;52.524;11.468;2023-08-31T03:47:04;7.33;;;4.97;;
32639;SDS011;19049;52.524;11.468;2023-08-31T03:49:30;6.13;;;5.23;;
32639;SDS011;19049;52.524;11.468;2023-08-31T03:51:57;6.33;;;5.20;;
32639;SDS011;19049;52.524;11.468;2023-08-31T03:54:23;8.27;;;5.73;;
32639;SDS011;19049;52.524;11.468;2023-08-31T03:56:48;6.27;;;4.63;;
32639;SDS011;19049;52.524;11.468;2023-08-31T03:59:14;6.37;;;5.10;;
32639;SDS011;19049;52.524;11.468;2023-08-31T04:01:40;7.40;;;5.37;;
32639;SDS011;19049;52.524;11.468;2023-08-31T04:04:05;7.90;;;5.67;;
32639;SDS011;19049;52.524;11.468;2023-08-31T04:06:31;7.50;;;5.87;;
32639;SDS011;19049;52.524;11.468;2023-08-31T04:08:57;7.53;;;5.60;;
32639;SDS011;19049;52.524;11.468;2023-08-31T04:11:24;7.30;;;5.50;;
32639;SDS011;19049;52.524;11.468;2023-08-31T04:13:50;6.17;;;5.40;;
32639;SDS011;19049;52.524;11.468;2023-08-31T04:16:16;6.30;;;4.97;;
32639;SDS011;19049;52.524;11.468;2023-08-31T04:18:42;6.00;;;4.90;;
32639;SDS011;19049;52.524;11.468;2023-08-31T04:21:08;8.13;;;5.10;;
32639;SDS011;19049;52.524;11.468;2023-08-31T04:23:33;6.53;;;4.57;;
32639;SDS011;19049;52.524;11.468;2023-08-31T04:25:59;7.07;;;5.47;;
32639;SDS011;19049;52.524;11.468;2023-08-31T04:28:25;6.73;;;5.20;;
32639;SDS011;19049;52.524;11.468;2023-08-31T04:30:51;7.57;;;6.07;;
32639;SDS011;19049;52.524;11.468;2023-08-31T04:33:17;8.43;;;5.83;;
32639;SDS011;19049;52.524;11.468;2023-08-31T04:35:43;6.97;;;5.50;;
32639;SDS011;19049;52.524;11.468;2023-08-31T04:38:09;6.90;;;5.53;;
32639;SDS011;19049;52.524;11.468;2023-08-31T04:40:35;7.33;;;6.17;;
32639;SDS011;19049;52.524;11.468;2023-08-31T04:43:02;7.43;;;4.90;;
32639;SDS011;19049;52.524;11.468;2023-08-31T04:45:28;8.63;;;5.63;;
32639;SDS011;19049;52.524;11.468;2023-08-31T04:47:54;7.03;;;5.80;;
32639;SDS011;19049;52.524;11.468;2023-08-31T04:50:19;9.17;;;5.60;;
32639;SDS011;19049;52.524;11.468;2023-08-31T04:52:45;7.30;;;5.17;;
32639;SDS011;19049;52.524;11.468;2023-08-31T04:55:12;7.90;;;5.80;;
32639;SDS011;19049;52.524;11.468;2023-08-31T04:57:38;8.50;;;6.80;;
32639;SDS011;19049;52.524;11.468;2023-08-31T05:00:04;10.60;;;7.10;;
32639;SDS011;19049;52.524;11.468;2023-08-31T05:02:34;7.93;;;6.00;;
32639;SDS011;19049;52.524;11.468;2023-08-31T05:04:59;9.07;;;6.17;;
32639;SDS011;19049;52.524;11.468;2023-08-31T05:07:25;6.00;;;5.33;;
32639;SDS011;19049;52.524;11.468;2023-08-31T05:09:51;7.57;;;5.27;;
32639;SDS011;19049;52.524;11.468;2023-08-31T05:12:16;6.87;;;5.47;;
32639;SDS011;19049;52.524;11.468;2023-08-31T05:14:42;9.03;;;5.50;;
32639;SDS011;19049;52.524;11.468;2023-08-31T05:17:08;7.57;;;6.13;;
32639;SDS011;19049;52.524;11.468;2023-08-31T05:19:34;7.10;;;5.60;;
32639;SDS011;19049;52.524;11.468;2023-08-31T05:22:00;8.50;;;5.83;;
32639;SDS011;19049;52.524;11.468;2023-08-31T05:24:25;7.20;;;5.90;;
32639;SDS011;19049;52.524;11.468;2023-08-31T05:26:51;10.17;;;6.73;;
32639;SDS011;19049;52.524;11.468;2023-08-31T05:29:17;9.40;;;6.20;;
32639;SDS011;19049;52.524;11.468;2023-08-31T05:31:42;8.30;;;6.83;;
32639;SDS011;19049;52.524;11.468;2023-08-31T05:34:15;8.47;;;6.43;;
32639;SDS011;19049;52.524;11.468;2023-08-31T05:36:43;10.07;;;7.13;;
32639;SDS011;19049;52.524;11.468;2023-08-31T05:39:08;10.07;;;8.03;;
32639;SDS011;19049;52.524;11.468;2023-08-31T05:41:34;10.13;;;6.67;;
32639;SDS011;19049;52.524;11.468;2023-08-31T05:44:00;11.37;;;8.63;;
32639;SDS011;19049;52.524;11.468;2023-08-31T05:46:26;13.03;;;7.83;;
32639;SDS011;19049;52.524;11.468;2023-08-31T05:48:52;10.20;;;7.37;;
32639;SDS011;19049;52.524;11.468;2023-08-31T05:51:18;14.33;;;7.80;;
32639;SDS011;19049;52.524;11.468;2023-08-31T05:53:43;9.33;;;7.60;;
32639;SDS011;19049;52.524;11.468;2023-08-31T05:56:09;11.23;;;7.40;;
32639;SDS011;19049;52.524;11.468;2023-08-31T05:58:35;12.50;;;8.10;;
32639;SDS011;19049;52.524;11.468;2023-08-31T06:01:02;10.47;;;7.50;;
32639;SDS011;19049;52.524;11.468;2023-08-31T06:03:28;11.77;;;7.90;;
32639;SDS011;19049;52.524;11.468;2023-08-31T06:05:55;10.97;;;7.57;;
32639;SDS011;19049;52.524;11.468;2023-08-31T06:08:22;11.63;;;7.67;;
32639;SDS011;19049;52.524;11.468;2023-08-31T06:10:47;11.00;;;8.17;;
32639;SDS011;19049;52.524;11.468;2023-08-31T06:13:13;12.87;;;9.50;;
32639;SDS011;19049;52.524;11.468;2023-08-31T06:15:39;13.00;;;9.03;;
32639;SDS011;19049;52.524;11.468;2023-08-31T06:18:05;10.97;;;8.07;;
32639;SDS011;19049;52.524;11.468;2023-08-31T06:20:31;11.60;;;7.53;;
32639;SDS011;19049;52.524;11.468;2023-08-31T06:22:57;10.30;;;7.17;;
32639;SDS011;19049;52.524;11.468;2023-08-31T06:25:24;7.67;;;6.43;;
32639;SDS011;19049;52.524;11.468;2023-08-31T06:27:50;8.23;;;5.97;;
32639;SDS011;19049;52.524;11.468;2023-08-31T06:30:16;8.57;;;6.63;;
32639;SDS011;19049;52.524;11.468;2023-08-31T06:32:43;7.60;;;6.10;;
32639;SDS011;19049;52.524;11.468;2023-08-31T06:35:10;7.43;;;5.90;;
32639;SDS011;19049;52.524;11.468;2023-08-31T06:37:37;9.90;;;5.90;;
32639;SDS011;19049;52.524;11.468;2023-08-31T06:40:04;10.70;;;6.37;;
32639;SDS011;19049;52.524;11.468;2023-08-31T06:42:35;7.90;;;5.77;;
32639;SDS011;19049;52.524;11.468;2023-08-31T06:45:02;7.37;;;6.10;;
32639;SDS011;19049;52.524;11.468;2023-08-31T06:47:28;9.50;;;6.23;;
32639;SDS011;19049;52.524;11.468;2023-08-31T06:49:54;7.67;;;5.83;;
32639;SDS011;19049;52.524;11.468;2023-08-31T06:52:20;8.67;;;6.03;;
32639;SDS011;19049;52.524;11.468;2023-08-31T06:54:46;10.73;;;7.60;;
32639;SDS011;19049;52.524;11.468;2023-08-31T06:57:11;8.93;;;6.70;;
32639;SDS011;19049;52.524;11.468;2023-08-31T06:59:37;8.93;;;6.77;;
32639;SDS011;19049;52.524;11.468;2023-08-31T07:02:02;7.03;;;5.67;;
32639;SDS011;19049;52.524;11.468;2023-08-31T07:04:28;9.27;;;6.60;;
32639;SDS011;19049;52.524;11.468;2023-08-31T07:06:54;10.20;;;6.10;;
32639;SDS011;19049;52.524;11.468;2023-08-31T07:09:20;6.03;;;5.17;;
32639;SDS011;19049;52.524;11.468;2023-08-31T07:11:45;6.67;;;5.10;;
32639;SDS011;19049;52.524;11.468;2023-08-31T07:14:11;8.50;;;6.00;;
32639;SDS011;19049;52.524;11.468;2023-08-31T07:16:37;8.27;;;5.77;;
32639;SDS011;19049;52.524;11.468;2023-08-31T07:19:02;6.27;;;5.33;;
32639;SDS011;19049;52.524;11.468;2023-08-31T07:21:28;10.73;;;6.37;;
32639;SDS011;19049;52.524;11.468;2023-08-31T07:23:53;8.30;;;6.73;;
32639;SDS011;19049;52.524;11.468;2023-08-31T07:26:20;8.73;;;6.23;;
32639;SDS011;19049;52.524;11.468;2023-08-31T07:28:46;9.57;;;6.07;;
32639;SDS011;19049;52.524;11.468;2023-08-31T07:31:12;8.27;;;6.50;;
32639;SDS011;19049;52.524;11.468;2023-08-31T07:33:38;9.73;;;6.70;;
32639;SDS011;19049;52.524;11.468;2023-08-31T07:36:04;9.00;;;6.63;;
32639;SDS011;19049;52.524;11.468;2023-08-31T07:38:31;7.57;;;5.50;;
32639;SDS011;19049;52.524;11.468;2023-08-31T07:40:57;6.03;;;5.10;;
32639;SDS011;19049;52.524;11.468;2023-08-31T07:43:23;8.17;;;5.13;;
32639;SDS011;19049;52.524;11.468;2023-08-31T07:45:52;7.73;;;5.10;;
32639;SDS011;19049;52.524;11.468;2023-08-31T07:48:18;8.23;;;5.60;;
32639;SDS011;19049;52.524;11.468;2023-08-31T07:50:44;5.80;;;5.20;;
32639;SDS011;19049;52.524;11.468;2023-08-31T07:53:11;5.70;;;5.00;;
32639;SDS011;19049;52.524;11.468;2023-08-31T07:55:36;5.77;;;5.20;;
32639;SDS011;19049;52.524;11.468;2023-08-31T07:58:02;5.13;;;4.10;;
32639;SDS011;19049;52.524;11.468;2023-08-31T08:00:28;5.53;;;4.53;;
32639;SDS011;19049;52.524;11.468;2023-08-31T08:02:53;5.67;;;5.00;;
32639;SDS011;19049;52.524;11.468;2023-08-31T08:05:19;6.40;;;4.43;;
32639;SDS011;19049;52.524;11.468;2023-08-31T08:07:45;6.07;;;4.73;;
32639;SDS011;19049;52.524;11.468;2023-08-31T08:10:11;6.87;;;4.77;;
32639;SDS011;19049;52.524;11.468;2023-08-31T08:12:41;4.60;;;4.10;;
32639;SDS011;19049;52.524;11.468;2023-08-31T08:15:11;4.70;;;4.30;;
32639;SDS011;19049;52.524;11.468;2023-08-31T08:17:37;6.27;;;4.80;;
32639;SDS011;19049;52.524;11.468;2023-08-31T08:20:05;6.00;;;4.17;;
32639;SDS011;19049;52.524;11.468;2023-08-31T08:22:31;6.10;;;4.03;;
32639;SDS011;19049;52.524;11.468;2023-08-31T08:24:57;6.50;;;4.77;;
32639;SDS011;19049;52.524;11.468;2023-08-31T08:27:23;7.00;;;5.03;;
32639;SDS011;19049;52.524;11.468;2023-08-31T08:29:48;5.43;;;4.93;;
32639;SDS011;19049;52.524;11.468;2023-08-31T08:32:14;4.93;;;4.43;;
32639;SDS011;19049;52.524;11.468;2023-08-31T08:34:40;4.43;;;3.77;;
32639;SDS011;19049;52.524;11.468;2023-08-31T08:37:06;4.03;;;3.63;;
32639;SDS011;19049;52.524;11.468;2023-08-31T08:39:31;4.03;;;3.60;;
32639;SDS011;19049;52.524;11.468;2023-08-31T08:41:58;4.93;;;3.77;;
32639;SDS011;19049;52.524;11.468;2023-08-31T08:44:28;5.40;;;3.70;;
32639;SDS011;19049;52.524;11.468;2023-08-31T08:46:57;7.13;;;3.67;;
32639;SDS011;19049;52.524;11.468;2023-08-31T08:49:24;4.43;;;3.50;;
32639;SDS011;19049;52.524;11.468;2023-08-31T08:51:51;3.63;;;3.00;;
32639;SDS011;19049;52.524;11.468;2023-08-31T08:54:18;4.80;;;3.37;;
32639;SDS011;19049;52.524;11.468;2023-08-31T08:56:45;3.60;;;3.30;;
32639;SDS011;19049;52.524;11.468;2023-08-31T08:59:10;4.27;;;3.27;;
32639;SDS011;19049;52.524;11.468;2023-08-31T09:01:38;4.90;;;2.90;;
32639;SDS011;19049;52.524;11.468;2023-08-31T09:04:04;6.23;;;3.77;;
32639;SDS011;19049;52.524;11.468;2023-08-31T09:06:31;3.97;;;2.73;;
32639;SDS011;19049;52.524;11.468;2023-08-31T09:08:57;3.07;;;2.60;;
32639;SDS011;19049;52.524;11.468;2023-08-31T09:11:23;3.30;;;2.80;;
32639;SDS011;19049;52.524;11.468;2023-08-31T09:13:50;3.80;;;2.50;;
32639;SDS011;19049;52.524;11.468;2023-08-31T09:16:26;4.87;;;2.50;;
32639;SDS011;19049;52.524;11.468;2023-08-31T09:18:54;5.17;;;2.30;;
32639;SDS011;19049;52.524;11.468;2023-08-31T09:21:20;4.87;;;2.70;;
32639;SDS011;19049;52.524;11.468;2023-08-31T09:24:05;5.87;;;3.00;;
32639;SDS011;19049;52.524;11.468;2023-08-31T09:26:38;3.67;;;2.60;;
32639;SDS011;19049;52.524;11.468;2023-08-31T09:29:13;3.30;;;2.40;;
32639;SDS011;19049;52.524;11.468;2023-08-31T09:31:43;3.30;;;2.57;;
32639;SDS011;19049;52.524;11.468;2023-08-31T09:34:09;3.50;;;2.63;;
32639;SDS011;19049;52.524;11.468;2023-08-31T09:36:36;4.13;;;3.07;;
32639;SDS011;19049;52.524;11.468;2023-08-31T09:39:03;4.83;;;2.47;;
32639;SDS011;19049;52.524;11.468;2023-08-31T09:41:30;3.20;;;2.13;;
32639;SDS011;19049;52.524;11.468;2023-08-31T09:43:56;2.93;;;2.27;;
32639;SDS011;19049;52.524;11.468;2023-08-31T09:46:39;5.40;;;2.33;;
32639;SDS011;19049;52.524;11.468;2023-08-31T09:49:04;3.67;;;2.20;;
32639;SDS011;19049;52.524;11.468;2023-08-31T09:51:31;3.10;;;2.43;;
32639;SDS011;19049;52.524;11.468;2023-08-31T09:53:58;3.50;;;2.17;;
32639;SDS011;19049;52.524;11.468;2023-08-31T09:56:26;2.77;;;2.43;;
32639;SDS011;19049;52.524;11.468;2023-08-31T09:58:54;2.73;;;2.30;;
32639;SDS011;19049;52.524;11.468;2023-08-31T10:01:20;3.53;;;1.90;;
32639;SDS011;19049;52.524;11.468;2023-08-31T10:03:45;3.17;;;2.00;;
32639;SDS011;19049;52.524;11.468;2023-08-31T10:06:11;2.37;;;1.80;;
32639;SDS011;19049;52.524;11.468;2023-08-31T10:08:37;3.03;;;1.90;;
32639;SDS011;19049;52.524;11.468;2023-08-31T10:11:04;2.13;;;1.93;;
32639;SDS011;19049;52.524;11.468;2023-08-31T10:13:31;3.07;;;2.10;;
32639;SDS011;19049;52.524;11.468;2023-08-31T10:16:02;2.23;;;1.87;;
32639;SDS011;19049;52.524;11.468;2023-08-31T10:18:29;2.17;;;1.97;;
32639;SDS011;19049;52.524;11.468;2023-08-31T10:20:56;2.37;;;2.03;;
32639;SDS011;19049;52.524;11.468;2023-08-31T10:23:22;3.50;;;2.20;;
32639;SDS011;19049;52.524;11.468;2023-08-31T10:28:19;4.53;;;2.40;;
32639;SDS011;19049;52.524;11.468;2023-08-31T10:31:05;2.30;;;1.93;;
32639;SDS011;19049;52.524;11.468;2023-08-31T10:33:35;2.83;;;2.20;;
32639;SDS011;19049;52.524;11.468;2023-08-31T10:36:15;1.70;;;1.60;;
32639;SDS011;19049;52.524;11.468;2023-08-31T10:38:44;3.87;;;2.10;;
32639;SDS011;19049;52.524;11.468;2023-08-31T10:43:46;2.47;;;1.80;;
32639;SDS011;19049;52.524;11.468;2023-08-31T10:46:17;3.27;;;2.03;;
32639;SDS011;19049;52.524;11.468;2023-08-31T10:48:54;1.57;;;1.47;;
32639;SDS011;19049;52.524;11.468;2023-08-31T10:51:26;3.67;;;1.57;;
32639;SDS011;19049;52.524;11.468;2023-08-31T10:59:23;1.70;;;1.60;;
32639;SDS011;19049;52.524;11.468;2023-08-31T11:04:19;1.30;;;1.20;;
32639;SDS011;19049;52.524;11.468;2023-08-31T11:06:45;1.97;;;1.40;;
32639;SDS011;19049;52.524;11.468;2023-08-31T11:09:20;2.03;;;1.57;;
32639;SDS011;19049;52.524;11.468;2023-08-31T11:11:47;3.87;;;1.43;;
32639;SDS011;19049;52.524;11.468;2023-08-31T11:14:13;3.97;;;1.47;;
32639;SDS011;19049;52.524;11.468;2023-08-31T11:16:41;1.73;;;1.30;;
32639;SDS011;19049;52.524;11.468;2023-08-31T11:19:07;1.57;;;1.10;;
32639;SDS011;19049;52.524;11.468;2023-08-31T11:21:32;1.27;;;1.17;;
32639;SDS011;19049;52.524;11.468;2023-08-31T11:23:58;3.07;;;1.50;;
32639;SDS011;19049;52.524;11.468;2023-08-31T11:26:25;4.57;;;1.30;;
32639;SDS011;19049;52.524;11.468;2023-08-31T11:28:51;2.13;;;1.40;;
32639;SDS011;19049;52.524;11.468;2023-08-31T11:31:23;1.80;;;1.50;;
32639;SDS011;19049;52.524;11.468;2023-08-31T11:33:49;1.23;;;1.10;;
32639;SDS011;19049;52.524;11.468;2023-08-31T11:36:15;1.37;;;1.27;;
32639;SDS011;19049;52.524;11.468;2023-08-31T11:38:43;1.93;;;1.10;;
32639;SDS011;19049;52.524;11.468;2023-08-31T11:41:09;1.20;;;1.10;;
32639;SDS011;19049;52.524;11.468;2023-08-31T11:43:35;1.87;;;1.20;;
32639;SDS011;19049;52.524;11.468;2023-08-31T11:46:02;1.90;;;1.10;;
32639;SDS011;19049;52.524;11.468;2023-08-31T11:48:29;1.90;;;1.10;;
32639;SDS011;19049;52.524;11.468;2023-08-31T11:50:56;3.13;;;1.60;;
32639;SDS011;19049;52.524;11.468;2023-08-31T11:53:22;3.90;;;1.90;;
32639;SDS011;19049;52.524;11.468;2023-08-31T11:55:51;3.93;;;1.60;;
32639;SDS011;19049;52.524;11.468;2023-08-31T11:58:19;1.77;;;1.27;;
32639;SDS011;19049;52.524;11.468;2023-08-31T12:00:45;7.37;;;2.43;;
32639;SDS011;19049;52.524;11.468;2023-08-31T12:03:12;3.10;;;1.60;;
32639;SDS011;19049;52.524;11.468;2023-08-31T12:05:44;2.90;;;1.50;;
32639;SDS011;19049;52.524;11.468;2023-08-31T12:08:10;2.77;;;1.53;;
32639;SDS011;19049;52.524;11.468;2023-08-31T12:10:39;1.70;;;0.97;;
32639;SDS011;19049;52.524;11.468;2023-08-31T12:13:09;1.77;;;0.97;;
32639;SDS011;19049;52.524;11.468;2023-08-31T12:15:36;2.87;;;1.23;;
32639;SDS011;19049;52.524;11.468;2023-08-31T12:20:34;0.90;;;0.80;;
32639;SDS011;19049;52.524;11.468;2023-08-31T12:23:06;1.67;;;1.00;;
32639;SDS011;19049;52.524;11.468;2023-08-31T12:25:33;1.40;;;0.73;;
32639;SDS011;19049;52.524;11.468;2023-08-31T12:27:58;3.67;;;1.13;;
32639;SDS011;19049;52.524;11.468;2023-08-31T12:30:24;1.00;;;0.80;;
32639;SDS011;19049;52.524;11.468;2023-08-31T12:32:50;1.50;;;1.40;;
32639;SDS011;19049;52.524;11.468;2023-08-31T12:35:17;3.40;;;1.40;;
32639;SDS011;19049;52.524;11.468;2023-08-31T12:37:43;1.50;;;1.30;;
32639;SDS011;19049;52.524;11.468;2023-08-31T12:40:09;1.30;;;1.20;;
32639;SDS011;19049;52.524;11.468;2023-08-31T12:42:35;1.93;;;1.03;;
32639;SDS011;19049;52.524;11.468;2023-08-31T12:45:01;1.27;;;1.17;;
32639;SDS011;19049;52.524;11.468;2023-08-31T12:47:30;1.87;;;1.30;;
32639;SDS011;19049;52.524;11.468;2023-08-31T12:49:56;1.10;;;1.00;;
32639;SDS011;19049;52.524;11.468;2023-08-31T12:52:22;1.63;;;1.30;;
32639;SDS011;19049;52.524;11.468;2023-08-31T12:54:49;1.80;;;1.43;;
32639;SDS011;19049;52.524;11.468;2023-08-31T12:57:14;1.67;;;1.30;;
32639;SDS011;19049;52.524;11.468;2023-08-31T12:59:40;1.50;;;1.40;;
32639;SDS011;19049;52.524;11.468;2023-08-31T13:02:07;1.77;;;1.57;;
32639;SDS011;19049;52.524;11.468;2023-08-31T13:04:35;1.87;;;1.77;;
32639;SDS011;19049;52.524;11.468;2023-08-31T13:07:01;2.23;;;1.97;;
32639;SDS011;19049;52.524;11.468;2023-08-31T13:09:28;4.50;;;2.40;;
32639;SDS011;19049;52.524;11.468;2023-08-31T13:11:54;2.33;;;2.13;;
32639;SDS011;19049;52.524;11.468;2023-08-31T13:14:20;2.83;;;2.37;;
32639;SDS011;19049;52.524;11.468;2023-08-31T13:16:45;2.70;;;2.20;;
32639;SDS011;19049;52.524;11.468;2023-08-31T13:19:11;2.13;;;1.93;;
32639;SDS011;19049;52.524;11.468;2023-08-31T13:21:37;1.73;;;1.63;;
32639;SDS011;19049;52.524;11.468;2023-08-31T13:24:02;1.30;;;1.20;;
32639;SDS011;19049;52.524;11.468;2023-08-31T13:26:28;1.40;;;1.30;;
32639;SDS011;19049;52.524;11.468;2023-08-31T13:28:54;1.07;;;0.90;;
32639;SDS011;19049;52.524;11.468;2023-08-31T13:31:20;1.30;;;0.97;;
32639;SDS011;19049;52.524;11.468;2023-08-31T13:33:46;0.80;;;0.80;;
32639;SDS011;19049;52.524;11.468;2023-08-31T13:36:12;1.00;;;0.90;;
32639;SDS011;19049;52.524;11.468;2023-08-31T13:38:37;0.90;;;0.90;;
32639;SDS011;19049;52.524;11.468;2023-08-31T13:41:03;0.97;;;0.90;;
32639;SDS011;19049;52.524;11.468;2023-08-31T13:43:29;2.50;;;1.10;;
32639;SDS011;19049;52.524;11.468;2023-08-31T13:45:55;2.30;;;0.90;;
32639;SDS011;19049;52.524;11.468;2023-08-31T13:48:21;1.20;;;1.03;;
32639;SDS011;19049;52.524;11.468;2023-08-31T13:50:48;1.30;;;1.20;;
32639;SDS011;19049;52.524;11.468;2023-08-31T13:53:14;1.20;;;1.10;;
32639;SDS011;19049;52.524;11.468;2023-08-31T13:55:39;1.43;;;1.33;;
32639;SDS011;19049;52.524;11.468;2023-08-31T13:58:05;2.90;;;1.30;;
32639;SDS011;19049;52.524;11.468;2023-08-31T14:00:32;1.40;;;1.30;;
32639;SDS011;19049;52.524;11.468;2023-08-31T14:02:58;2.00;;;1.70;;
32639;SDS011;19049;52.524;11.468;2023-08-31T14:05:28;2.10;;;1.90;;
32639;SDS011;19049;52.524;11.468;2023-08-31T14:07:54;1.90;;;1.80;;
32639;SDS011;19049;52.524;11.468;2023-08-31T14:10:20;2.60;;;2.40;;
32639;SDS011;19049;52.524;11.468;2023-08-31T14:12:46;2.40;;;2.20;;
32639;SDS011;19049;52.524;11.468;2023-08-31T14:15:12;2.47;;;2.27;;
32639;SDS011;19049;52.524;11.468;2023-08-31T14:17:38;2.20;;;1.90;;
32639;SDS011;19049;52.524;11.468;2023-08-31T14:20:04;2.50;;;2.30;;
32639;SDS011;19049;52.524;11.468;2023-08-31T14:22:33;2.03;;;1.93;;
32639;SDS011;19049;52.524;11.468;2023-08-31T14:24:59;2.87;;;2.00;;
32639;SDS011;19049;52.524;11.468;2023-08-31T14:27:26;2.87;;;2.00;;
32639;SDS011;19049;52.524;11.468;2023-08-31T14:29:52;2.93;;;1.70;;
32639;SDS011;19049;52.524;11.468;2023-08-31T14:32:18;1.67;;;1.57;;
32639;SDS011;19049;52.524;11.468;2023-08-31T14:34:44;1.77;;;1.67;;
32639;SDS011;19049;52.524;11.468;2023-08-31T14:37:09;1.80;;;1.70;;
32639;SDS011;19049;52.524;11.468;2023-08-31T14:39:35;2.27;;;1.37;;
32639;SDS011;19049;52.524;11.468;2023-08-31T14:42:01;1.60;;;1.50;;
32639;SDS011;19049;52.524;11.468;2023-08-31T14:44:28;1.40;;;1.30;;
32639;SDS011;19049;52.524;11.468;2023-08-31T14:46:54;1.03;;;1.00;;
32639;SDS011;19049;52.524;11.468;2023-08-31T14:49:21;1.30;;;1.20;;
32639;SDS011;19049;52.524;11.468;2023-08-31T14:51:49;1.30;;;1.07;;
32639;SDS011;19049;52.524;11.468;2023-08-31T14:54:16;1.40;;;1.20;;
32639;SDS011;19049;52.524;11.468;2023-08-31T14:56:42;1.30;;;1.10;;